Terminal Aerodrome Forecast
Issued by NWS Wichita, KS

Home | Current Version | Previous Version | Graphics & Text | Print | Product List | Glossary On
Versions: 1 2 3 4 5 6 7 8 9 10 11 12 13 14 15
125
FTUS43 KICT 071740
TAFICT
TAF
KICT 071740Z 0718/0818 03017KT P6SM SCT040 OVC070
     FM072000 03013KT P6SM OVC025
     FM080000 01009KT P6SM SCT025 OVC080
     FM080300 35009KT P6SM SCT035=

USA.gov is the U.S. government's official web portal to all federal, state and local government web resources and services.